Time;durP1;ratioP1;P1;durP2;ratioP2;P2;SDS_P1;SDS_P2;PMS_P1;PMS_P2;Temp;Humidity;BMP_temperature;BMP_pressure;BME280_temperature;BME280_humidity;BME280_pressure;Samples;Min_cycle;Max_cycle;Signal;HPM_P1;HPM_P2
2022/11/28 00:00:17;;;;;;;5.67;3.90;;;7.60;99.90;;;;;;5049144;28;20412;-75
2022/11/28 00:03:03;;;;;;;6.72;4.05;;;7.70;99.90;;;;;;5042245;28;20574;-74
2022/11/28 00:05:49;;;;;;;5.93;4.60;;;7.60;99.90;;;;;;5044255;28;20208;-75
2022/11/28 00:08:35;;;;;;;6.00;3.95;;;7.60;99.90;;;;;;5050170;28;20244;-75
2022/11/28 00:11:21;;;;;;;8.27;4.20;;;7.60;99.90;;;;;;5047745;28;20237;-75
2022/11/28 00:14:08;;;;;;;7.93;3.60;;;7.70;99.90;;;;;;5060662;28;20270;-75
2022/11/28 00:16:53;;;;;;;5.30;3.80;;;7.60;99.90;;;;;;5057811;28;20776;-75
2022/11/28 00:19:39;;;;;;;5.20;3.55;;;7.60;99.90;;;;;;5055089;28;20446;-75
2022/11/28 00:22:26;;;;;;;4.68;3.80;;;7.70;99.90;;;;;;5053136;28;20201;-75
2022/11/28 00:25:12;;;;;;;5.00;3.40;;;7.70;99.90;;;;;;5050667;28;20209;-74
2022/11/28 00:27:57;;;;;;;6.60;3.60;;;7.60;99.90;;;;;;5050549;28;20427;-74
2022/11/28 00:30:44;;;;;;;5.73;3.73;;;7.60;99.90;;;;;;5046730;28;21051;-74
2022/11/28 00:33:33;;;;;;;5.60;3.78;;;7.50;99.90;;;;;;5045186;28;20624;-75
2022/11/28 00:36:19;;;;;;;5.65;3.97;;;7.30;99.90;;;;;;5050071;28;20205;-74
2022/11/28 00:39:05;;;;;;;5.10;3.70;;;7.30;99.90;;;;;;5046509;28;20240;-75
2022/11/28 00:41:51;;;;;;;4.68;3.53;;;7.40;99.90;;;;;;5042090;28;20441;-74
2022/11/28 00:44:37;;;;;;;6.70;4.00;;;7.20;99.90;;;;;;5046515;28;20205;-74
2022/11/28 00:47:24;;;;;;;6.60;4.00;;;7.20;99.90;;;;;;5049712;28;20428;-74
2022/11/28 00:50:10;;;;;;;6.55;4.05;;;7.20;99.90;;;;;;5047522;28;20499;-75
2022/11/28 00:52:56;;;;;;;7.20;4.53;;;7.20;99.90;;;;;;5052634;28;20715;-75
2022/11/28 00:55:41;;;;;;;4.78;3.90;;;7.20;99.90;;;;;;5049455;28;20838;-75
2022/11/28 00:58:27;;;;;;;5.83;4.37;;;7.30;99.90;;;;;;5048806;28;20372;-74
2022/11/28 01:01:16;;;;;;;6.20;4.07;;;7.30;99.90;;;;;;5042675;28;20435;-75
2022/11/28 01:04:06;;;;;;;9.35;4.22;;;7.30;99.90;;;;;;5050219;28;20451;-75
2022/11/28 01:06:52;;;;;;;5.50;3.83;;;7.30;99.90;;;;;;5049174;28;20685;-75
2022/11/28 01:09:38;;;;;;;6.30;4.18;;;7.30;99.90;;;;;;5046929;28;20728;-75
2022/11/28 01:12:23;;;;;;;9.70;3.83;;;7.30;99.90;;;;;;5050251;28;20265;-75
2022/11/28 01:15:11;;;;;;;5.35;3.90;;;7.20;99.90;;;;;;5049278;28;20572;-74
2022/11/28 01:17:57;;;;;;;7.35;4.00;;;7.20;99.90;;;;;;5044045;28;20587;-75
2022/11/28 01:20:44;;;;;;;5.93;3.90;;;7.20;99.90;;;;;;5047502;28;20208;-75
2022/11/28 01:23:30;;;;;;;7.07;3.70;;;7.10;99.90;;;;;;5053985;28;20296;-74
2022/11/28 01:26:18;;;;;;;5.57;3.70;;;7.10;99.90;;;;;;5050598;28;20205;-74
2022/11/28 01:29:04;;;;;;;6.30;3.97;;;7.20;99.90;;;;;;5049866;28;20928;-75
2022/11/28 01:31:50;;;;;;;4.60;3.60;;;7.10;99.90;;;;;;5047469;28;20298;-75
2022/11/28 01:34:35;;;;;;;8.15;3.90;;;7.00;99.90;;;;;;5044696;28;20209;-75
2022/11/28 01:37:22;;;;;;;12.85;3.78;;;7.00;99.90;;;;;;5050046;28;20213;-75
2022/11/28 01:40:10;;;;;;;4.95;3.60;;;7.00;99.90;;;;;;5072781;22;20367;-78
2022/11/28 01:42:55;;;;;;;6.03;3.67;;;7.00;99.90;;;;;;5054331;28;20197;-77
2022/11/28 01:45:41;;;;;;;4.50;3.20;;;6.90;99.90;;;;;;5055000;28;20674;-78
2022/11/28 01:48:30;;;;;;;5.57;4.97;;;6.90;99.90;;;;;;5050508;28;20223;-77
2022/11/28 01:51:16;;;;;;;5.07;3.67;;;6.90;99.90;;;;;;5050287;28;20356;-78
2022/11/28 01:54:03;;;;;;;5.93;4.25;;;6.90;99.90;;;;;;5050663;28;20575;-78
2022/11/28 01:56:52;;;;;;;4.68;3.42;;;6.80;99.90;;;;;;5055246;28;20246;-78
2022/11/28 01:59:42;;;;;;;7.40;3.70;;;6.70;99.90;;;;;;5050055;28;20232;-78
2022/11/28 02:02:33;;;;;;;5.47;3.55;;;6.70;99.90;;;;;;5053332;28;20208;-78
2022/11/28 02:05:20;;;;;;;4.55;3.55;;;6.80;99.90;;;;;;5061933;28;20239;-77
2022/11/28 02:08:08;;;;;;;6.97;4.40;;;6.60;99.90;;;;;;5054205;28;20209;-78
2022/11/28 02:11:12;;;;;;;6.13;4.00;;;6.70;99.90;;;;;;5051582;28;20233;-78
2022/11/28 02:14:08;;;;;;;4.80;3.00;;;6.70;99.90;;;;;;5059389;28;20243;-77
2022/11/28 02:17:09;;;;;;;6.35;4.00;;;6.80;99.90;;;;;;5047616;28;20335;-77
2022/11/28 02:20:24;;;;;;;4.45;3.67;;;6.80;99.90;;;;;;5051341;28;20220;-78
2022/11/28 02:23:14;;;;;;;4.60;3.45;;;6.70;99.90;;;;;;5052941;28;20790;-77
2022/11/28 02:26:33;;;;;;;7.22;4.03;;;6.60;99.90;;;;;;5052404;28;20581;-77
2022/11/28 02:29:51;;;;;;;5.10;4.03;;;6.70;99.90;;;;;;5050154;28;21250;-78
2022/11/28 02:33:05;;;;;;;4.80;3.28;;;6.80;99.90;;;;;;5053893;28;20277;-77
2022/11/28 02:35:59;;;;;;;7.15;3.67;;;6.90;99.90;;;;;;5055715;28;20200;-78
2022/11/28 02:38:55;;;;;;;6.03;3.97;;;6.90;99.90;;;;;;5051843;28;20327;-77
2022/11/28 02:41:46;;;;;;;5.72;3.45;;;6.80;99.90;;;;;;5049228;28;20560;-77
2022/11/28 02:44:39;;;;;;;4.03;3.40;;;6.80;99.90;;;;;;5048514;28;20220;-77
2022/11/28 02:47:30;;;;;;;5.13;3.50;;;6.80;99.90;;;;;;5051337;28;20704;-78
2022/11/28 02:50:22;;;;;;;6.00;4.35;;;6.80;99.90;;;;;;5049109;28;20224;-79
2022/11/28 02:53:12;;;;;;;6.25;3.60;;;6.90;99.90;;;;;;5054656;28;20343;-78
2022/11/28 02:55:59;;;;;;;5.80;4.70;;;6.90;99.90;;;;;;5050158;28;20693;-77
2022/11/28 02:58:44;;;;;;;4.95;3.80;;;6.90;99.90;;;;;;5058523;28;20706;-78
2022/11/28 03:01:33;;;;;;;3.58;2.92;;;6.70;99.90;;;;;;5057735;28;20224;-78
2022/11/28 03:04:25;;;;;;;5.60;3.90;;;6.70;99.90;;;;;;5053600;28;20209;-77
2022/11/28 03:07:25;;;;;;;5.63;4.60;;;6.60;99.90;;;;;;5053098;28;20592;-78
2022/11/28 03:10:21;;;;;;;6.70;3.47;;;6.60;99.90;;;;;;5052132;28;20356;-77
2022/11/28 03:13:13;;;;;;;4.05;3.55;;;6.60;99.90;;;;;;5052437;28;20209;-77
2022/11/28 03:16:10;;;;;;;7.93;3.85;;;6.50;99.90;;;;;;5050258;28;20265;-77
2022/11/28 03:19:03;;;;;;;4.72;3.70;;;6.50;99.90;;;;;;5044878;28;20283;-78
2022/11/28 03:21:56;;;;;;;6.60;4.20;;;6.50;99.90;;;;;;5050468;28;20196;-78
2022/11/28 03:24:46;;;;;;;6.90;4.13;;;6.50;99.90;;;;;;5045594;28;20204;-77
2022/11/28 03:27:37;;;;;;;6.50;3.80;;;6.50;99.90;;;;;;5054516;28;20199;-77
2022/11/28 03:30:29;;;;;;;9.10;4.10;;;6.40;99.90;;;;;;5055091;28;20311;-77
2022/11/28 03:33:17;;;;;;;5.68;4.20;;;6.50;99.90;;;;;;5057323;28;20443;-77
2022/11/28 03:36:07;;;;;;;6.85;4.75;;;6.50;99.90;;;;;;5051974;28;20204;-78
2022/11/28 03:38:59;;;;;;;4.78;3.90;;;6.50;99.90;;;;;;5051797;28;20934;-78
2022/11/28 03:41:52;;;;;;;4.93;3.88;;;6.60;99.90;;;;;;5047207;28;20650;-78
2022/11/28 03:44:43;;;;;;;5.83;4.03;;;6.50;99.90;;;;;;5055800;28;20204;-77
2022/11/28 03:47:32;;;;;;;7.43;4.20;;;6.50;99.90;;;;;;5045197;28;20474;-78
2022/11/28 03:50:23;;;;;;;10.90;4.82;;;6.50;99.90;;;;;;5046990;28;20221;-77
2022/11/28 03:53:14;;;;;;;5.45;4.03;;;6.60;99.90;;;;;;5049314;28;20212;-77
2022/11/28 03:56:07;;;;;;;7.65;3.55;;;6.60;99.90;;;;;;5064531;28;20282;-77
2022/11/28 03:59:00;;;;;;;5.07;3.75;;;6.60;99.90;;;;;;5055067;28;20286;-78
2022/11/28 04:01:53;;;;;;;4.25;3.60;;;6.60;99.90;;;;;;5053179;28;20201;-78
2022/11/28 04:04:48;;;;;;;6.53;4.30;;;6.60;99.90;;;;;;5045679;28;20678;-77
2022/11/28 04:07:39;;;;;;;4.63;4.10;;;6.50;99.90;;;;;;5048305;28;20654;-77
2022/11/28 04:10:31;;;;;;;5.63;4.47;;;6.30;99.90;;;;;;5050404;28;20299;-78
2022/11/28 04:13:21;;;;;;;5.70;4.35;;;6.40;99.90;;;;;;5061357;28;20204;-77
2022/11/28 04:16:17;;;;;;;10.48;4.18;;;6.30;99.90;;;;;;5053785;28;20204;-78
2022/11/28 04:19:11;;;;;;;5.47;4.57;;;6.20;99.90;;;;;;5059751;28;20415;-78
2022/11/28 04:22:01;;;;;;;6.05;3.90;;;6.20;99.90;;;;;;5055880;28;20582;-78
2022/11/28 04:24:51;;;;;;;6.22;4.75;;;6.20;99.90;;;;;;5054352;28;20250;-77
2022/11/28 04:27:41;;;;;;;5.55;4.45;;;6.30;99.90;;;;;;5054034;28;20264;-78
2022/11/28 04:30:28;;;;;;;5.22;4.00;;;6.30;99.90;;;;;;5053063;28;20219;-78
2022/11/28 04:33:17;;;;;;;6.35;4.22;;;6.30;99.90;;;;;;5050802;28;20201;-78
2022/11/28 04:36:05;;;;;;;5.78;4.47;;;6.20;99.90;;;;;;5054359;28;20258;-78
2022/11/28 04:38:55;;;;;;;6.72;4.85;;;6.20;99.90;;;;;;5053197;28;20228;-77
2022/11/28 04:41:45;;;;;;;6.18;4.60;;;6.00;99.90;;;;;;5057355;28;20216;-78
2022/11/28 04:44:36;;;;;;;6.22;4.57;;;5.90;99.90;;;;;;5061778;28;20253;-77
2022/11/28 04:47:23;;;;;;;4.65;4.13;;;6.00;99.90;;;;;;5059861;28;20217;-77
2022/11/28 04:50:12;;;;;;;5.18;4.00;;;6.00;99.90;;;;;;5064239;28;20301;-77
2022/11/28 04:53:04;;;;;;;5.32;4.32;;;6.10;99.90;;;;;;5047052;28;20210;-78
2022/11/28 04:55:56;;;;;;;6.60;4.15;;;6.00;99.90;;;;;;5060789;28;20200;-77
2022/11/28 04:58:45;;;;;;;5.10;4.15;;;6.00;99.90;;;;;;5057762;28;22307;-77
2022/11/28 05:01:32;;;;;;;5.25;3.63;;;6.00;99.90;;;;;;5053014;28;20501;-77
2022/11/28 05:04:18;;;;;;;10.25;5.32;;;6.00;99.90;;;;;;5055870;28;20275;-77
2022/11/28 05:07:06;;;;;;;7.30;4.20;;;6.10;99.90;;;;;;5057850;28;20259;-77
2022/11/28 05:09:54;;;;;;;4.90;3.80;;;6.20;99.90;;;;;;5059441;28;20225;-77
2022/11/28 05:12:40;;;;;;;10.23;3.97;;;6.20;99.90;;;;;;5063000;28;20692;-77
2022/11/28 05:15:25;;;;;;;5.45;4.63;;;6.10;99.90;;;;;;5061667;28;20205;-77
2022/11/28 05:18:11;;;;;;;4.80;3.78;;;6.00;99.90;;;;;;5054231;28;20201;-78
2022/11/28 05:20:58;;;;;;;7.40;4.40;;;6.10;99.90;;;;;;5059187;28;20335;-77
2022/11/28 05:23:46;;;;;;;5.88;4.05;;;6.10;99.90;;;;;;5057245;28;20259;-78
2022/11/28 05:26:33;;;;;;;4.38;3.80;;;6.10;99.90;;;;;;5053254;28;20754;-77
2022/11/28 05:29:19;;;;;;;16.58;9.98;;;6.20;99.90;;;;;;5055609;28;20244;-78
2022/11/28 05:32:04;;;;;;;11.43;5.28;;;6.00;99.90;;;;;;5052375;28;20216;-78
2022/11/28 05:34:50;;;;;;;6.22;4.13;;;6.00;99.90;;;;;;5051319;28;20824;-78
2022/11/28 05:37:36;;;;;;;6.60;4.80;;;5.90;99.90;;;;;;5050100;28;20335;-78
2022/11/28 05:40:23;;;;;;;5.05;4.00;;;5.90;99.90;;;;;;5054337;28;20237;-78
2022/11/28 05:43:09;;;;;;;6.10;4.57;;;5.90;99.90;;;;;;5046867;28;20556;-78
2022/11/28 05:45:55;;;;;;;12.63;5.93;;;5.90;99.90;;;;;;5051241;28;20216;-77
2022/11/28 05:48:40;;;;;;;5.65;4.30;;;6.00;99.90;;;;;;5055016;28;20200;-77
2022/11/28 05:51:25;;;;;;;5.53;4.93;;;6.10;99.90;;;;;;5056633;28;20224;-77
2022/11/28 05:54:11;;;;;;;5.43;4.47;;;5.90;99.90;;;;;;5062232;28;20265;-77
2022/11/28 05:56:58;;;;;;;5.50;4.43;;;5.90;99.90;;;;;;5056934;28;20721;-77
2022/11/28 05:59:44;;;;;;;4.85;3.83;;;6.10;99.90;;;;;;5049618;28;20221;-77
2022/11/28 06:02:29;;;;;;;8.98;4.75;;;5.90;99.90;;;;;;5069112;28;20254;-77
2022/11/28 06:05:15;;;;;;;7.18;3.55;;;5.90;99.90;;;;;;5054539;28;20208;-77
2022/11/28 06:08:00;;;;;;;6.57;4.30;;;5.90;99.90;;;;;;5051688;28;20204;-77
2022/11/28 06:10:46;;;;;;;14.05;4.75;;;5.80;99.90;;;;;;5057784;28;20637;-77
2022/11/28 06:13:33;;;;;;;6.32;4.60;;;5.80;99.90;;;;;;5056631;28;20232;-77
2022/11/28 06:16:20;;;;;;;5.18;4.28;;;5.80;99.90;;;;;;5054692;28;20196;-78
2022/11/28 06:19:06;;;;;;;6.80;4.35;;;5.80;99.90;;;;;;5051224;28;20237;-77
2022/11/28 06:21:51;;;;;;;4.32;3.90;;;5.70;99.90;;;;;;5052070;28;20201;-77
2022/11/28 06:24:37;;;;;;;8.05;4.28;;;5.70;99.90;;;;;;5051777;28;20301;-77
2022/11/28 06:27:23;;;;;;;5.20;4.65;;;5.70;99.90;;;;;;5050641;28;20279;-77
2022/11/28 06:30:10;;;;;;;7.50;4.80;;;5.70;99.90;;;;;;5050571;28;20232;-77
2022/11/28 06:32:56;;;;;;;7.57;5.38;;;5.70;99.90;;;;;;5057226;28;20221;-77
2022/11/28 06:35:41;;;;;;;6.03;4.93;;;5.80;99.90;;;;;;5052396;28;20200;-77
2022/11/28 06:38:27;;;;;;;9.32;6.70;;;6.00;99.90;;;;;;5047918;28;20204;-78
2022/11/28 06:41:14;;;;;;;8.05;6.60;;;6.00;99.90;;;;;;5052210;28;20235;-77
2022/11/28 06:44:00;;;;;;;9.65;6.10;;;5.90;99.90;;;;;;5053401;28;20209;-77
2022/11/28 06:46:47;;;;;;;8.43;5.50;;;5.80;99.90;;;;;;5047131;28;20570;-78
2022/11/28 06:49:33;;;;;;;7.75;5.80;;;5.90;99.90;;;;;;5047407;28;20225;-77
2022/11/28 06:52:18;;;;;;;9.02;5.88;;;5.90;99.90;;;;;;5050804;28;20740;-77
2022/11/28 06:55:04;;;;;;;36.22;20.42;;;5.90;99.90;;;;;;5052076;28;20278;-78
2022/11/28 06:57:50;;;;;;;37.95;23.10;;;5.80;99.90;;;;;;5049550;28;20204;-78
2022/11/28 07:00:37;;;;;;;28.10;16.83;;;5.80;99.90;;;;;;5051897;28;20220;-77
2022/11/28 07:03:24;;;;;;;21.25;12.93;;;5.90;99.90;;;;;;5056978;28;20343;-78
2022/11/28 07:06:09;;;;;;;18.80;13.02;;;6.00;99.90;;;;;;5052316;28;20204;-78
2022/11/28 07:08:57;;;;;;;15.35;11.32;;;6.00;99.90;;;;;;5052624;28;20217;-77
2022/11/28 07:11:42;;;;;;;13.98;9.10;;;6.10;99.90;;;;;;5048355;28;20268;-78
2022/11/28 07:14:28;;;;;;;16.92;9.98;;;6.10;99.90;;;;;;5055030;28;20204;-77
2022/11/28 07:17:14;;;;;;;15.20;10.20;;;6.00;99.90;;;;;;5054488;28;20200;-77
2022/11/28 07:20:01;;;;;;;14.43;8.98;;;6.10;99.90;;;;;;5051719;28;20231;-77
2022/11/28 07:22:48;;;;;;;12.35;8.82;;;6.10;99.90;;;;;;5053171;28;20208;-78
2022/11/28 07:25:34;;;;;;;14.98;10.20;;;6.10;99.90;;;;;;5048828;28;20220;-77
2022/11/28 07:28:19;;;;;;;12.05;9.52;;;6.00;99.90;;;;;;5049572;28;20274;-78
2022/11/28 07:31:06;;;;;;;14.15;9.05;;;6.10;99.90;;;;;;5051278;28;20205;-77
2022/11/28 07:33:52;;;;;;;10.23;7.63;;;6.00;99.90;;;;;;5042706;28;20220;-78
2022/11/28 07:36:39;;;;;;;7.88;6.57;;;6.00;99.90;;;;;;5046681;28;20217;-78
2022/11/28 07:39:25;;;;;;;10.65;8.43;;;6.00;99.90;;;;;;5085103;22;20246;-76
2022/11/28 07:42:10;;;;;;;10.90;8.25;;;6.00;99.90;;;;;;5066739;28;20201;-76
2022/11/28 07:44:56;;;;;;;10.73;7.05;;;6.00;99.90;;;;;;5065284;28;20208;-75
2022/11/28 07:47:41;;;;;;;9.98;7.10;;;6.10;99.90;;;;;;5062634;28;20250;-76
2022/11/28 07:50:27;;;;;;;8.95;6.80;;;6.20;99.90;;;;;;5067819;28;20219;-76
2022/11/28 07:53:14;;;;;;;10.30;7.50;;;6.20;99.90;;;;;;5069094;28;20227;-76
2022/11/28 07:56:02;;;;;;;13.73;8.20;;;6.20;99.90;;;;;;5065001;28;20208;-75
2022/11/28 07:58:49;;;;;;;13.35;7.65;;;6.20;99.90;;;;;;5068303;28;20717;-77
2022/11/28 08:01:35;;;;;;;17.67;7.78;;;6.30;99.90;;;;;;5068100;28;20565;-76
2022/11/28 08:04:21;;;;;;;8.30;6.35;;;6.30;99.90;;;;;;5064185;28;20206;-73
2022/11/28 08:07:07;;;;;;;12.95;7.97;;;6.30;99.90;;;;;;5063648;28;20212;-74
2022/11/28 08:09:54;;;;;;;15.77;9.70;;;6.20;99.90;;;;;;5077794;28;20215;-75
2022/11/28 08:12:39;;;;;;;26.42;14.95;;;6.20;99.90;;;;;;5079088;28;20257;-77
2022/11/28 08:15:29;;;;;;;27.10;16.88;;;6.20;99.90;;;;;;5067818;28;20211;-75
2022/11/28 08:18:15;;;;;;;32.25;19.77;;;6.20;99.90;;;;;;5081442;28;20204;-76
2022/11/28 08:21:05;;;;;;;28.48;17.40;;;6.30;99.90;;;;;;5072096;28;20220;-75
2022/11/28 08:23:52;;;;;;;27.30;15.10;;;6.20;99.90;;;;;;5076741;28;20207;-76
2022/11/28 08:26:40;;;;;;;25.20;16.33;;;6.30;99.90;;;;;;5076247;28;20198;-75
2022/11/28 08:29:25;;;;;;;16.90;10.93;;;6.40;99.90;;;;;;5081647;28;20230;-75
2022/11/28 08:32:11;;;;;;;16.05;10.50;;;6.50;99.90;;;;;;5066588;28;20220;-76
2022/11/28 08:34:56;;;;;;;26.20;11.18;;;6.50;99.90;;;;;;5072661;28;20207;-75
2022/11/28 08:37:42;;;;;;;26.15;12.63;;;6.60;99.90;;;;;;5069627;28;20238;-75
2022/11/28 08:40:27;;;;;;;21.88;13.30;;;6.70;99.90;;;;;;5075642;28;20831;-77
2022/11/28 08:43:14;;;;;;;29.92;16.52;;;6.70;99.90;;;;;;5072029;28;20567;-75
2022/11/28 08:46:00;;;;;;;34.45;19.38;;;6.80;99.90;;;;;;5074363;28;20203;-76
2022/11/28 08:48:46;;;;;;;25.03;14.87;;;6.90;99.90;;;;;;5069535;28;20223;-76
2022/11/28 08:51:32;;;;;;;18.88;13.60;;;6.90;99.90;;;;;;5065878;28;20485;-76
2022/11/28 08:54:17;;;;;;;15.55;10.88;;;7.00;99.90;;;;;;5071962;28;20200;-76
2022/11/28 08:57:03;;;;;;;16.88;13.00;;;7.00;99.90;;;;;;5073830;28;20208;-76
2022/11/28 08:59:50;;;;;;;15.10;10.60;;;7.10;99.90;;;;;;5073760;28;20298;-76
2022/11/28 09:02:35;;;;;;;17.92;10.27;;;7.10;99.90;;;;;;5070577;28;20273;-76
2022/11/28 09:05:21;;;;;;;17.90;10.98;;;7.10;99.90;;;;;;5078239;28;20307;-76
2022/11/28 09:08:06;;;;;;;17.90;12.13;;;7.20;99.90;;;;;;5067410;28;20208;-76
2022/11/28 09:10:52;;;;;;;14.25;10.60;;;7.10;99.90;;;;;;5072276;28;20568;-76
2022/11/28 09:13:38;;;;;;;21.52;11.02;;;7.20;99.90;;;;;;5078993;28;20231;-75
2022/11/28 09:16:25;;;;;;;25.50;11.98;;;7.20;99.90;;;;;;5070799;28;20236;-75
2022/11/28 09:19:10;;;;;;;24.10;16.42;;;7.30;99.90;;;;;;5073819;28;20208;-76
2022/11/28 09:21:56;;;;;;;19.45;14.05;;;7.30;99.90;;;;;;5067170;28;20216;-76
2022/11/28 09:24:42;;;;;;;22.20;14.70;;;7.40;99.90;;;;;;5066830;28;20579;-76
2022/11/28 09:27:27;;;;;;;21.65;14.30;;;7.40;99.90;;;;;;5069685;28;20204;-77
2022/11/28 09:30:14;;;;;;;16.20;12.00;;;7.40;99.90;;;;;;5062563;28;20227;-77
2022/11/28 09:33:01;;;;;;;18.10;12.05;;;7.40;99.90;;;;;;5067237;28;20471;-76
2022/11/28 09:35:46;;;;;;;16.33;11.25;;;7.50;99.90;;;;;;5065596;28;20348;-75
2022/11/28 09:38:32;;;;;;;14.77;10.55;;;7.50;99.90;;;;;;5070046;28;20582;-76
2022/11/28 09:41:38;;;;;;;15.90;11.40;;;7.60;99.90;;;;;;5067168;28;20235;-76
2022/11/28 09:44:26;;;;;;;14.90;10.90;;;7.60;99.90;;;;;;5068586;28;20962;-76
2022/11/28 09:47:18;;;;;;;13.88;9.38;;;7.60;99.90;;;;;;5069917;28;20220;-76
2022/11/28 09:50:13;;;;;;;12.02;8.98;;;7.70;99.90;;;;;;5064100;28;20310;-75
2022/11/28 09:53:10;;;;;;;15.00;10.90;;;7.80;99.90;;;;;;5074777;28;20227;-74
2022/11/28 09:55:59;;;;;;;15.05;10.38;;;7.90;99.90;;;;;;5072273;28;20227;-76
2022/11/28 09:58:50;;;;;;;17.15;10.70;;;7.90;99.90;;;;;;5065400;28;20705;-75
2022/11/28 10:01:43;;;;;;;15.57;10.32;;;7.90;99.90;;;;;;5067378;28;20193;-75
2022/11/28 10:04:38;;;;;;;18.17;11.13;;;7.90;99.90;;;;;;5053122;28;20247;-77
2022/11/28 10:07:33;;;;;;;17.88;13.35;;;8.00;99.90;;;;;;5066945;28;20451;-73
2022/11/28 10:10:28;;;;;;;19.57;15.30;;;8.00;99.90;;;;;;5066308;28;20219;-75
2022/11/28 10:13:25;;;;;;;20.88;15.02;;;8.00;99.90;;;;;;5058664;28;20595;-75
2022/11/28 10:16:18;;;;;;;28.33;18.30;;;7.90;99.90;;;;;;5065357;28;20204;-75
2022/11/28 10:19:09;;;;;;;49.33;25.20;;;7.90;99.90;;;;;;5067715;28;21042;-71
2022/11/28 10:21:58;;;;;;;70.50;32.90;;;7.90;99.90;;;;;;5067552;28;20977;-75
2022/11/28 10:24:50;;;;;;;35.80;21.07;;;7.80;99.90;;;;;;5062036;28;20460;-74
2022/11/28 10:27:36;;;;;;;39.63;22.50;;;7.90;99.90;;;;;;5067148;28;21010;-75
2022/11/28 10:30:24;;;;;;;38.92;18.40;;;8.00;99.90;;;;;;5069950;28;20288;-76
2022/11/28 10:33:16;;;;;;;17.73;10.93;;;8.00;99.90;;;;;;5069662;28;20530;-76
2022/11/28 10:36:03;;;;;;;15.80;11.23;;;8.00;99.90;;;;;;5067614;28;20201;-75
2022/11/28 10:38:48;;;;;;;13.60;9.95;;;8.00;99.90;;;;;;5064820;28;20548;-75
2022/11/28 10:41:40;;;;;;;21.13;13.03;;;8.10;99.90;;;;;;5066432;28;20208;-74
2022/11/28 10:44:35;;;;;;;69.37;34.07;;;8.20;99.90;;;;;;5060278;28;20943;-76
2022/11/28 10:47:36;;;;;;;17.77;12.00;;;8.20;99.90;;;;;;5068579;28;20451;-76
2022/11/28 10:50:29;;;;;;;18.70;12.20;;;8.20;99.90;;;;;;5065898;28;20282;-75
2022/11/28 10:53:24;;;;;;;19.00;11.50;;;8.20;99.90;;;;;;5061525;28;20467;-76
2022/11/28 10:56:19;;;;;;;13.27;8.67;;;8.30;99.90;;;;;;5065210;28;20208;-76
2022/11/28 10:59:15;;;;;;;16.90;10.70;;;8.30;99.90;;;;;;5067994;28;20454;-75
2022/11/28 11:02:16;;;;;;;13.25;9.05;;;8.30;99.90;;;;;;5063564;28;20979;-73
2022/11/28 11:05:02;;;;;;;14.90;10.20;;;8.40;99.90;;;;;;5066617;28;20207;-76
2022/11/28 11:07:51;;;;;;;12.90;9.17;;;8.40;99.90;;;;;;5069585;28;20200;-75
2022/11/28 11:10:39;;;;;;;15.60;10.20;;;8.40;99.90;;;;;;5068221;28;20505;-74
2022/11/28 11:13:27;;;;;;;16.63;10.93;;;8.50;99.90;;;;;;5062369;28;20474;-77
2022/11/28 11:16:14;;;;;;;23.43;11.27;;;8.50;99.90;;;;;;5059819;28;21584;-75
2022/11/28 11:18:59;;;;;;;13.77;10.20;;;8.50;99.90;;;;;;5059376;28;20835;-75
2022/11/28 11:22:02;;;;;;;17.70;11.30;;;8.50;99.90;;;;;;5064967;28;20815;-73
2022/11/28 11:25:06;;;;;;;14.70;9.90;;;8.50;99.90;;;;;;5059310;28;20437;-75
2022/11/28 11:27:53;;;;;;;9.93;8.37;;;8.60;99.90;;;;;;5071491;28;20416;-75
2022/11/28 11:30:41;;;;;;;16.77;9.10;;;8.60;99.90;;;;;;5075289;28;20527;-75
2022/11/28 11:33:33;;;;;;;19.73;9.30;;;8.60;99.90;;;;;;5063189;28;20470;-76
2022/11/28 11:36:26;;;;;;;14.40;9.67;;;8.60;99.90;;;;;;5075218;28;20422;-76
2022/11/28 11:39:24;;;;;;;15.33;9.20;;;8.70;99.90;;;;;;5079818;28;20425;-74
2022/11/28 11:42:18;;;;;;;12.77;8.10;;;8.80;99.90;;;;;;5076926;28;20792;-73
2022/11/28 11:45:26;;;;;;;14.27;7.53;;;8.80;99.90;;;;;;5072651;28;21048;-76
2022/11/28 11:48:13;;;;;;;16.30;7.70;;;8.80;99.90;;;;;;5068412;28;20516;-76
2022/11/28 11:51:00;;;;;;;10.60;7.07;;;8.80;99.90;;;;;;5076234;28;20495;-74
2022/11/28 11:53:45;;;;;;;15.40;7.47;;;8.90;99.90;;;;;;5061222;28;20463;-76
2022/11/28 11:56:35;;;;;;;12.40;7.70;;;9.00;99.90;;;;;;5073690;28;20422;-74
2022/11/28 11:59:26;;;;;;;12.37;7.37;;;9.00;99.90;;;;;;5080308;28;20458;-76
2022/11/28 12:02:21;;;;;;;15.00;8.37;;;9.10;99.90;;;;;;5063949;28;20528;-76
2022/11/28 12:05:12;;;;;;;15.37;10.37;;;9.20;99.90;;;;;;5077011;28;20426;-74
2022/11/28 12:08:03;;;;;;;17.73;10.60;;;9.20;99.90;;;;;;5067201;28;20855;-77
2022/11/28 12:10:52;;;;;;;16.90;10.43;;;9.20;99.90;;;;;;5077385;28;20464;-75
2022/11/28 12:13:38;;;;;;;12.30;9.70;;;9.20;99.90;;;;;;5067386;28;20474;-76
2022/11/28 12:16:48;;;;;;;11.97;8.80;;;9.20;99.90;;;;;;5072559;28;20483;-76
2022/11/28 12:19:41;;;;;;;15.40;9.43;;;9.20;99.90;;;;;;5066199;28;20462;-76
2022/11/28 12:22:34;;;;;;;10.67;8.33;;;9.10;99.90;;;;;;5063470;28;20476;-76
2022/11/28 12:25:28;;;;;;;13.37;9.93;;;9.20;99.90;;;;;;5070474;28;20419;-76
2022/11/28 12:28:22;;;;;;;9.80;7.43;;;9.20;99.90;;;;;;5080075;28;20405;-76
2022/11/28 12:31:16;;;;;;;13.93;8.30;;;9.30;99.90;;;;;;5074976;28;21041;-74
2022/11/28 12:34:13;;;;;;;11.60;7.70;;;9.30;99.90;;;;;;5063497;28;20466;-76
2022/11/28 12:37:09;;;;;;;17.33;8.03;;;9.40;99.90;;;;;;5068115;28;20431;-76
2022/11/28 12:40:02;;;;;;;18.87;7.60;;;9.30;99.90;;;;;;5077337;28;20497;-76
2022/11/28 12:42:59;;;;;;;15.17;7.90;;;9.40;99.90;;;;;;5058566;28;20451;-75
2022/11/28 12:45:54;;;;;;;10.60;7.23;;;9.30;99.90;;;;;;5067365;28;20554;-76
2022/11/28 12:48:53;;;;;;;14.33;6.57;;;9.30;99.90;;;;;;5071704;28;20434;-76
2022/11/28 12:51:53;;;;;;;10.33;6.80;;;9.40;99.90;;;;;;5056352;28;20438;-75
2022/11/28 12:55:12;;;;;;;13.50;8.50;;;9.30;99.90;;;;;;5064750;28;20486;-77
2022/11/28 12:58:05;;;;;;;9.90;8.10;;;9.40;99.90;;;;;;5063848;28;20956;-77
2022/11/28 13:00:57;;;;;;;13.77;8.50;;;9.50;99.90;;;;;;5065294;28;20466;-73
2022/11/28 13:03:53;;;;;;;11.07;8.27;;;9.50;99.90;;;;;;5063239;28;20803;-76
2022/11/28 13:06:47;;;;;;;8.40;6.50;;;9.50;99.90;;;;;;5068019;28;20447;-74
2022/11/28 13:09:34;;;;;;;10.37;6.53;;;9.60;99.90;;;;;;5067365;28;20455;-76
2022/11/28 13:12:29;;;;;;;10.40;5.13;;;9.60;99.90;;;;;;5044394;28;20929;-75
2022/11/28 13:15:27;;;;;;;7.43;5.83;;;9.60;99.90;;;;;;5063147;28;20812;-75
2022/11/28 13:18:25;;;;;;;13.23;5.93;;;9.60;99.90;;;;;;5062690;28;20825;-76
2022/11/28 13:21:21;;;;;;;9.77;5.93;;;9.60;99.90;;;;;;5061320;28;20784;-76
2022/11/28 13:24:24;;;;;;;7.70;6.40;;;9.60;99.90;;;;;;5065938;28;20529;-77
2022/11/28 13:27:20;;;;;;;9.07;5.53;;;9.70;99.90;;;;;;5065245;28;20846;-73
2022/11/28 13:30:17;;;;;;;6.40;5.30;;;9.80;99.90;;;;;;5063051;28;21014;-75
2022/11/28 13:33:13;;;;;;;8.47;5.97;;;9.80;99.90;;;;;;5067119;28;20450;-73
2022/11/28 13:35:59;;;;;;;11.00;5.70;;;9.80;99.90;;;;;;5063288;28;20523;-76
2022/11/28 13:38:53;;;;;;;11.63;5.53;;;9.80;99.90;;;;;;5068137;28;20446;-76
2022/11/28 13:41:45;;;;;;;6.20;5.60;;;9.80;99.90;;;;;;5074244;22;21096;-77
2022/11/28 13:44:35;;;;;;;9.53;6.17;;;9.90;99.90;;;;;;5067579;28;20482;-77
2022/11/28 13:47:31;;;;;;;10.00;6.70;;;9.90;99.90;;;;;;5069102;28;20991;-77
2022/11/28 13:50:39;;;;;;;8.80;5.93;;;9.90;99.90;;;;;;5067162;28;20473;-76
2022/11/28 13:53:25;;;;;;;8.50;5.70;;;9.90;99.90;;;;;;5067495;28;20484;-76
2022/11/28 13:56:23;;;;;;;8.93;6.30;;;10.00;99.90;;;;;;5068327;28;20508;-77
2022/11/28 13:59:18;;;;;;;9.50;6.17;;;10.00;99.90;;;;;;5068085;28;20544;-76
2022/11/28 14:02:17;;;;;;;10.60;5.80;;;10.00;99.90;;;;;;5062950;28;20439;-77
2022/11/28 14:05:05;;;;;;;8.80;6.33;;;10.00;99.90;;;;;;5059799;28;20593;-77
2022/11/28 14:07:52;;;;;;;7.57;6.83;;;10.10;99.90;;;;;;5068383;28;21086;-77
2022/11/28 14:10:59;;;;;;;10.10;6.57;;;10.10;99.90;;;;;;5056939;28;20477;-77
2022/11/28 14:13:58;;;;;;;17.40;6.90;;;10.00;99.90;;;;;;5068227;28;20503;-77
2022/11/28 14:17:02;;;;;;;10.93;7.43;;;10.00;99.90;;;;;;5069295;28;20428;-77
2022/11/28 14:20:06;;;;;;;11.17;6.63;;;10.00;99.90;;;;;;5063159;28;20584;-77
2022/11/28 14:23:13;;;;;;;8.07;6.80;;;10.00;99.90;;;;;;5063417;28;20444;-76
2022/11/28 14:25:59;;;;;;;9.80;7.13;;;10.00;99.90;;;;;;5062425;28;20493;-76
2022/11/28 14:28:45;;;;;;;9.37;7.27;;;9.90;99.90;;;;;;5068236;28;20577;-76
2022/11/28 14:31:33;;;;;;;12.60;8.40;;;9.90;99.90;;;;;;5065170;28;20955;-75
2022/11/28 14:34:38;;;;;;;10.70;7.53;;;9.90;99.90;;;;;;5074423;28;20945;-76
2022/11/28 14:37:56;;;;;;;14.10;6.80;;;9.90;99.90;;;;;;5062664;28;20983;-78
2022/11/28 14:41:10;;;;;;;12.10;7.90;;;9.90;99.90;;;;;;5057585;28;20490;-77
2022/11/28 14:44:34;;;;;;;8.83;6.70;;;9.90;99.90;;;;;;5066970;28;20440;-77
2022/11/28 14:47:29;;;;;;;10.00;6.60;;;9.80;99.90;;;;;;5072264;28;20702;-77
2022/11/28 14:50:47;;;;;;;9.23;5.97;;;9.80;99.90;;;;;;5060474;28;20442;-77